Time;durP1;ratioP1;P1;durP2;ratioP2;P2;SDS_P1;SDS_P2;PMS_P1;PMS_P2;Temp;Humidity;BMP_temperature;BMP_pressure;BME280_temperature;BME280_humidity;BME280_pressure;Samples;Min_cycle;Max_cycle;Signal;HPM_P1;HPM_P2
2021/06/29 00:00:38;;;;;;;2.70;2.50;;;22.30;71.40;;;;;;5057051;28;20498;-44
2021/06/29 00:03:06;;;;;;;2.97;2.50;;;22.30;71.20;;;;;;5057370;28;20971;-44
2021/06/29 00:05:35;;;;;;;3.70;2.60;;;22.30;71.80;;;;;;5058157;28;20912;-44
2021/06/29 00:08:02;;;;;;;2.77;2.47;;;22.20;72.10;;;;;;5054287;28;20449;-44
2021/06/29 00:10:30;;;;;;;2.63;2.43;;;22.20;72.50;;;;;;5059491;28;20498;-43
2021/06/29 00:12:57;;;;;;;2.80;2.60;;;22.20;72.90;;;;;;5062836;28;20461;-44
2021/06/29 00:15:30;;;;;;;3.60;2.50;;;22.10;73.10;;;;;;5055961;28;20461;-44
2021/06/29 00:17:59;;;;;;;3.07;2.87;;;22.10;73.20;;;;;;5057350;28;21099;-44
2021/06/29 00:20:26;;;;;;;3.37;3.07;;;22.10;73.50;;;;;;5085015;28;20461;-44
2021/06/29 00:22:53;;;;;;;4.27;3.43;;;22.10;73.40;;;;;;5059590;28;20462;-44
2021/06/29 00:25:20;;;;;;;3.57;3.17;;;22.10;73.50;;;;;;5059075;28;20457;-44
2021/06/29 00:27:47;;;;;;;5.83;3.57;;;22.10;73.70;;;;;;5057650;28;20658;-44
2021/06/29 00:30:15;;;;;;;4.57;3.67;;;22.10;73.90;;;;;;5056402;28;20856;-44
2021/06/29 00:32:42;;;;;;;4.80;3.20;;;22.00;74.10;;;;;;5057342;28;20485;-44
2021/06/29 00:35:10;;;;;;;4.87;3.43;;;22.00;74.40;;;;;;5056272;28;21030;-44
2021/06/29 00:37:38;;;;;;;3.80;3.50;;;22.00;74.50;;;;;;5061904;28;20636;-43
2021/06/29 00:40:07;;;;;;;4.93;3.90;;;22.00;74.50;;;;;;5061015;28;20463;-44
2021/06/29 00:42:34;;;;;;;3.80;3.40;;;22.00;74.60;;;;;;5057574;28;20834;-44
2021/06/29 00:45:01;;;;;;;3.40;3.10;;;22.00;74.70;;;;;;5058878;28;20458;-43
2021/06/29 00:47:28;;;;;;;3.83;3.30;;;22.00;75.00;;;;;;5059488;28;20457;-44
2021/06/29 00:49:55;;;;;;;4.40;3.70;;;21.90;75.10;;;;;;5056804;28;20482;-44
2021/06/29 00:52:22;;;;;;;4.20;3.87;;;21.90;75.20;;;;;;5054984;28;20465;-44
2021/06/29 00:54:49;;;;;;;5.63;4.03;;;21.90;75.20;;;;;;5058387;28;20960;-44
2021/06/29 00:57:16;;;;;;;4.37;3.97;;;21.90;75.40;;;;;;5062253;28;20470;-44
2021/06/29 00:59:43;;;;;;;4.40;4.00;;;21.90;75.60;;;;;;5055739;28;20502;-43
2021/06/29 01:02:11;;;;;;;3.77;3.47;;;21.90;75.90;;;;;;5057498;28;20466;-44
2021/06/29 01:04:39;;;;;;;4.13;3.53;;;21.90;75.90;;;;;;5056765;28;20462;-44
2021/06/29 01:07:09;;;;;;;3.73;3.30;;;21.90;75.40;;;;;;5053856;28;20458;-44
2021/06/29 01:09:38;;;;;;;4.20;3.50;;;21.90;75.50;;;;;;5052299;28;21132;-43
2021/06/29 01:12:07;;;;;;;4.83;4.33;;;21.90;75.50;;;;;;5053099;28;20461;-44
2021/06/29 01:14:34;;;;;;;4.43;3.80;;;21.90;75.70;;;;;;5053434;28;20469;-44
2021/06/29 01:17:04;;;;;;;4.40;4.00;;;21.80;75.80;;;;;;5083470;28;20454;-44
2021/06/29 01:19:40;;;;;;;3.83;3.50;;;21.80;75.90;;;;;;5053848;28;20484;-44
2021/06/29 01:22:08;;;;;;;4.00;3.53;;;21.80;75.90;;;;;;5053965;28;20472;-44
2021/06/29 01:24:35;;;;;;;3.90;3.50;;;21.80;76.10;;;;;;5054498;28;20958;-44
2021/06/29 01:32:18;;;;;;;3.50;3.20;;;21.70;76.10;;;;;;5055937;28;20955;-44
2021/06/29 01:34:46;;;;;;;4.07;3.67;;;21.70;76.10;;;;;;5051100;28;20982;-44
2021/06/29 01:37:13;;;;;;;4.50;4.10;;;21.70;76.10;;;;;;5060894;28;20450;-44
2021/06/29 01:39:53;;;;;;;4.80;4.30;;;21.70;76.10;;;;;;5054090;28;20954;-44
2021/06/29 01:42:20;;;;;;;3.60;3.30;;;21.70;75.80;;;;;;5059196;28;20825;-44
2021/06/29 01:44:46;;;;;;;4.43;3.90;;;21.70;75.60;;;;;;5053960;28;20454;-44
2021/06/29 01:47:23;;;;;;;4.10;3.70;;;21.70;75.70;;;;;;5053965;28;20458;-44
2021/06/29 01:49:50;;;;;;;6.40;4.10;;;21.70;75.70;;;;;;5056521;28;20453;-44
2021/06/29 01:52:17;;;;;;;5.03;3.93;;;21.70;75.70;;;;;;5056930;28;20452;-44
2021/06/29 01:54:44;;;;;;;4.80;4.40;;;21.70;75.60;;;;;;5058761;28;20454;-43
2021/06/29 01:57:15;;;;;;;4.47;4.13;;;21.70;75.80;;;;;;5056928;28;20457;-43
2021/06/29 01:59:46;;;;;;;4.57;4.03;;;21.60;75.90;;;;;;5058548;28;20994;-43
2021/06/29 02:02:13;;;;;;;18.90;5.67;;;21.60;76.30;;;;;;5058754;28;20462;-44
2021/06/29 02:04:42;;;;;;;4.70;4.30;;;21.60;76.40;;;;;;5058027;28;21051;-44
2021/06/29 02:07:09;;;;;;;6.23;4.60;;;21.60;76.50;;;;;;5064908;28;20453;-43
2021/06/29 02:09:36;;;;;;;4.80;4.07;;;21.60;76.60;;;;;;5063072;28;20451;-43
2021/06/29 02:12:04;;;;;;;5.30;4.50;;;21.60;76.70;;;;;;5061520;28;20583;-43
2021/06/29 02:14:31;;;;;;;5.33;4.73;;;21.60;77.00;;;;;;5061025;28;20465;-44
2021/06/29 02:16:58;;;;;;;5.80;4.50;;;21.60;77.00;;;;;;5062078;28;20461;-44
2021/06/29 02:19:25;;;;;;;4.73;4.33;;;21.60;77.00;;;;;;5063842;28;20565;-43
2021/06/29 02:21:51;;;;;;;5.83;5.07;;;21.60;77.00;;;;;;5089371;28;20959;-44
2021/06/29 02:24:18;;;;;;;5.23;4.73;;;21.60;77.10;;;;;;5089857;28;20458;-43
2021/06/29 02:26:45;;;;;;;5.40;4.90;;;21.60;77.10;;;;;;5060377;28;20453;-43
2021/06/29 02:29:12;;;;;;;4.63;3.97;;;21.60;77.10;;;;;;5054804;28;20454;-44
2021/06/29 02:31:38;;;;;;;5.00;4.53;;;21.60;77.20;;;;;;5056985;28;20510;-43
2021/06/29 02:34:05;;;;;;;6.33;4.63;;;21.60;77.20;;;;;;5060303;28;20783;-44
2021/06/29 02:36:32;;;;;;;5.10;4.60;;;21.60;77.20;;;;;;5058939;28;20450;-44
2021/06/29 02:38:59;;;;;;;6.73;4.33;;;21.60;77.30;;;;;;5087352;28;20451;-43
2021/06/29 02:41:25;;;;;;;5.50;5.00;;;21.60;77.30;;;;;;5069142;28;20462;-43
2021/06/29 02:43:52;;;;;;;6.93;6.23;;;21.60;77.30;;;;;;5060302;28;20450;-44
2021/06/29 02:46:19;;;;;;;5.87;4.60;;;21.50;77.40;;;;;;5085478;28;20817;-43
2021/06/29 02:48:45;;;;;;;7.40;5.33;;;21.50;77.70;;;;;;5055451;28;20461;-43
2021/06/29 02:51:13;;;;;;;5.20;4.70;;;21.50;77.80;;;;;;5057996;28;20496;-43
2021/06/29 02:53:40;;;;;;;7.00;5.00;;;21.50;77.90;;;;;;5058669;28;20435;-44
2021/06/29 02:56:36;;;;;;;8.07;5.53;;;21.40;78.00;;;;;;5056654;28;21052;-43
2021/06/29 02:58:53;;;;;;;5.90;4.87;;;21.30;78.20;;;;;;5055186;28;20465;-43
2021/06/29 03:01:20;;;;;;;5.47;4.97;;;21.30;78.30;;;;;;5056231;28;20523;-43
2021/06/29 03:03:49;;;;;;;5.07;4.63;;;21.30;78.50;;;;;;5057014;28;20463;-43
2021/06/29 03:06:16;;;;;;;5.10;4.70;;;21.30;78.80;;;;;;5056205;28;20981;-43
2021/06/29 03:08:45;;;;;;;6.20;5.60;;;21.20;79.00;;;;;;5053912;28;20490;-44
2021/06/29 03:11:12;;;;;;;8.73;5.20;;;21.20;79.10;;;;;;5064069;28;20485;-43
2021/06/29 03:13:39;;;;;;;5.60;5.10;;;21.20;79.10;;;;;;5057981;28;20463;-43
2021/06/29 03:16:06;;;;;;;5.43;4.93;;;21.20;79.10;;;;;;5059053;28;20461;-43
2021/06/29 03:18:34;;;;;;;5.63;4.20;;;21.20;79.20;;;;;;5056787;28;20465;-44
2021/06/29 03:21:01;;;;;;;5.30;4.13;;;21.20;79.20;;;;;;5060489;28;20958;-44
2021/06/29 03:23:28;;;;;;;5.60;5.10;;;21.20;79.20;;;;;;5056175;28;20466;-44
2021/06/29 03:25:55;;;;;;;4.63;4.23;;;21.20;79.10;;;;;;5055953;28;20466;-44
2021/06/29 03:28:22;;;;;;;8.53;5.37;;;21.20;79.00;;;;;;5059723;28;20795;-43
2021/06/29 03:30:49;;;;;;;5.60;4.97;;;21.20;78.80;;;;;;5054356;28;20496;-44
2021/06/29 03:33:16;;;;;;;6.53;4.80;;;21.20;78.80;;;;;;5056226;28;20454;-43
2021/06/29 03:35:43;;;;;;;4.70;4.30;;;21.10;78.90;;;;;;5059957;28;20450;-43
2021/06/29 03:38:10;;;;;;;7.07;4.90;;;21.10;79.00;;;;;;5055997;28;21014;-43
2021/06/29 03:40:37;;;;;;;8.10;4.63;;;21.10;79.20;;;;;;5064770;28;20457;-43
2021/06/29 03:43:04;;;;;;;5.73;5.13;;;21.10;79.20;;;;;;5055552;28;20457;-43
2021/06/29 03:45:31;;;;;;;5.70;5.00;;;21.20;79.30;;;;;;5057913;28;20465;-43
2021/06/29 03:47:57;;;;;;;4.10;3.70;;;21.10;79.20;;;;;;5056674;28;20465;-43
2021/06/29 03:50:25;;;;;;;5.20;4.70;;;21.20;79.40;;;;;;5055954;28;20474;-43
2021/06/29 03:52:53;;;;;;;4.77;4.37;;;21.20;79.40;;;;;;5056416;28;20458;-43
2021/06/29 03:55:20;;;;;;;5.17;4.77;;;21.20;79.30;;;;;;5054414;28;20721;-43
2021/06/29 03:57:47;;;;;;;4.47;4.07;;;21.20;79.10;;;;;;5054697;28;20815;-44
2021/06/29 04:00:14;;;;;;;4.83;4.43;;;21.20;78.90;;;;;;5056278;28;20558;-43
2021/06/29 04:02:41;;;;;;;5.63;4.10;;;21.20;78.90;;;;;;5081243;28;20455;-43
2021/06/29 04:05:08;;;;;;;4.47;4.00;;;21.30;78.70;;;;;;5084341;28;23911;-43
2021/06/29 04:07:36;;;;;;;4.73;4.40;;;21.30;78.60;;;;;;5055462;28;20826;-43
2021/06/29 04:10:06;;;;;;;4.07;3.77;;;21.20;78.40;;;;;;5055264;28;20462;-44
2021/06/29 04:12:32;;;;;;;4.73;4.20;;;21.30;78.20;;;;;;5056220;28;21153;-43
2021/06/29 04:14:59;;;;;;;4.37;3.97;;;21.20;78.20;;;;;;5054980;28;20458;-43
2021/06/29 04:17:26;;;;;;;4.43;3.50;;;21.20;78.20;;;;;;5054756;28;20466;-44
2021/06/29 04:19:53;;;;;;;6.40;3.93;;;21.20;78.10;;;;;;5054198;28;20715;-43
2021/06/29 04:22:20;;;;;;;5.70;4.53;;;21.20;77.70;;;;;;5054793;28;20463;-43
2021/06/29 04:24:47;;;;;;;4.13;3.70;;;21.20;77.80;;;;;;5055150;28;20461;-43
2021/06/29 04:27:14;;;;;;;4.43;4.10;;;21.20;77.90;;;;;;5059605;28;20468;-43
2021/06/29 04:29:41;;;;;;;4.70;4.20;;;21.20;77.90;;;;;;5084550;28;20469;-43
2021/06/29 04:32:07;;;;;;;4.40;4.00;;;21.20;77.90;;;;;;5056736;28;20502;-43
2021/06/29 04:34:35;;;;;;;4.23;3.80;;;21.20;77.90;;;;;;5056882;28;20465;-43
2021/06/29 04:37:03;;;;;;;4.70;4.20;;;21.20;78.00;;;;;;5086259;28;20442;-43
2021/06/29 04:39:29;;;;;;;6.90;5.00;;;21.20;78.10;;;;;;5056166;28;20449;-44
2021/06/29 04:41:56;;;;;;;4.63;4.07;;;21.20;78.10;;;;;;5057776;28;20729;-44
2021/06/29 04:44:23;;;;;;;5.50;4.07;;;21.20;77.90;;;;;;5059258;28;20450;-43
2021/06/29 04:46:50;;;;;;;4.67;3.80;;;21.20;77.80;;;;;;5052425;28;20450;-43
2021/06/29 04:49:20;;;;;;;4.57;4.17;;;21.20;77.60;;;;;;5059164;28;20455;-43
2021/06/29 04:51:46;;;;;;;4.43;4.10;;;21.20;77.80;;;;;;5053613;28;21013;-44
2021/06/29 04:54:13;;;;;;;7.53;4.33;;;21.20;78.30;;;;;;5055750;28;21070;-44
2021/06/29 04:56:40;;;;;;;6.83;5.40;;;21.30;78.30;;;;;;5083599;28;20463;-43
2021/06/29 04:59:06;;;;;;;4.93;4.53;;;21.30;78.10;;;;;;5056376;28;20480;-43
2021/06/29 05:01:33;;;;;;;7.93;5.30;;;21.30;78.20;;;;;;5056728;28;20457;-43
2021/06/29 05:04:00;;;;;;;12.13;5.83;;;21.30;78.40;;;;;;5085719;28;20457;-43
2021/06/29 05:06:27;;;;;;;6.53;5.37;;;21.20;78.40;;;;;;5054394;28;21084;-43
2021/06/29 05:08:53;;;;;;;5.00;4.60;;;21.20;78.70;;;;;;5053386;28;20453;-43
2021/06/29 05:11:20;;;;;;;5.50;4.70;;;21.20;78.90;;;;;;5057990;28;20483;-43
2021/06/29 05:13:47;;;;;;;6.90;4.80;;;21.20;79.10;;;;;;5083407;28;20461;-43
2021/06/29 05:16:13;;;;;;;4.90;4.40;;;21.30;79.00;;;;;;5058273;28;20462;-44
2021/06/29 05:18:40;;;;;;;4.60;4.20;;;21.30;78.70;;;;;;5059099;28;21049;-43
2021/06/29 05:21:07;;;;;;;4.27;3.97;;;21.30;78.20;;;;;;5084641;28;20458;-44
2021/06/29 05:23:34;;;;;;;7.53;3.97;;;21.30;78.00;;;;;;5060210;28;20468;-44
2021/06/29 05:26:01;;;;;;;4.97;4.20;;;21.30;78.20;;;;;;5061650;28;20454;-44
2021/06/29 05:28:27;;;;;;;6.50;3.87;;;21.30;78.10;;;;;;5090056;28;20442;-43
2021/06/29 05:30:58;;;;;;;4.33;3.70;;;21.30;78.10;;;;;;5059685;28;21083;-43
2021/06/29 05:33:24;;;;;;;4.60;3.97;;;21.30;78.30;;;;;;5063385;28;20480;-43
2021/06/29 05:35:51;;;;;;;4.90;4.30;;;21.30;78.40;;;;;;5062434;28;20449;-43
2021/06/29 05:38:18;;;;;;;6.63;4.93;;;21.30;78.30;;;;;;5062659;28;20959;-43
2021/06/29 05:40:44;;;;;;;5.83;3.97;;;21.40;78.10;;;;;;5063048;28;20441;-43
2021/06/29 05:43:11;;;;;;;5.87;4.37;;;21.40;78.20;;;;;;5062000;28;21014;-43
2021/06/29 05:45:38;;;;;;;5.10;4.17;;;21.40;78.00;;;;;;5089248;28;20499;-44
2021/06/29 05:48:05;;;;;;;5.30;3.90;;;21.40;77.90;;;;;;5066929;28;20502;-43
2021/06/29 05:50:32;;;;;;;5.50;4.60;;;21.50;77.70;;;;;;5058515;28;20454;-44
2021/06/29 05:52:59;;;;;;;8.20;4.57;;;21.50;77.70;;;;;;5087724;28;20493;-43
2021/06/29 05:55:25;;;;;;;4.90;3.47;;;21.50;77.30;;;;;;5084304;28;20454;-43
2021/06/29 05:58:12;;;;;;;5.97;4.37;;;21.50;77.20;;;;;;5058126;28;20458;-43
2021/06/29 06:00:39;;;;;;;5.40;5.00;;;21.60;77.20;;;;;;5059343;28;20454;-43
2021/06/29 06:03:06;;;;;;;4.00;3.63;;;21.60;77.20;;;;;;5059584;28;20462;-43
2021/06/29 06:05:32;;;;;;;5.17;4.20;;;21.60;77.10;;;;;;5063206;28;21166;-43
2021/06/29 06:07:59;;;;;;;4.63;4.23;;;21.60;77.10;;;;;;5088740;28;20449;-44
2021/06/29 06:10:26;;;;;;;4.70;4.27;;;21.60;77.30;;;;;;5063229;28;20917;-44
2021/06/29 06:12:53;;;;;;;4.67;3.90;;;21.60;77.50;;;;;;5064144;28;20485;-43
2021/06/29 06:15:20;;;;;;;6.03;4.27;;;21.70;77.00;;;;;;5089864;28;21022;-44
2021/06/29 06:17:47;;;;;;;3.73;3.43;;;21.70;76.90;;;;;;5062217;28;20470;-44
2021/06/29 06:20:13;;;;;;;5.10;4.23;;;21.70;76.70;;;;;;5087458;28;20449;-44
2021/06/29 06:22:40;;;;;;;5.50;4.17;;;21.70;76.80;;;;;;5059625;28;20455;-43
2021/06/29 06:25:07;;;;;;;4.80;3.77;;;21.70;76.90;;;;;;5060464;28;20824;-44
2021/06/29 06:27:36;;;;;;;5.90;4.53;;;21.70;76.90;;;;;;5087203;28;20464;-44
2021/06/29 06:30:05;;;;;;;5.20;4.00;;;21.70;76.90;;;;;;5086931;28;20481;-44
2021/06/29 06:32:32;;;;;;;5.30;4.20;;;21.70;76.90;;;;;;5060659;28;20505;-44
2021/06/29 06:34:59;;;;;;;5.13;4.57;;;21.80;76.30;;;;;;5062233;28;20485;-43
2021/06/29 06:37:26;;;;;;;6.70;4.60;;;21.80;76.50;;;;;;5061446;28;20457;-44
2021/06/29 06:39:52;;;;;;;6.23;3.67;;;21.80;76.70;;;;;;5089594;28;20450;-44
2021/06/29 06:42:19;;;;;;;3.80;3.50;;;21.80;76.60;;;;;;5061419;28;20885;-44
2021/06/29 06:44:51;;;;;;;4.67;3.97;;;21.80;76.10;;;;;;5061558;28;20462;-44
2021/06/29 06:47:17;;;;;;;5.53;4.03;;;21.80;75.70;;;;;;5060938;28;20549;-44
2021/06/29 06:49:44;;;;;;;5.00;4.60;;;21.80;75.80;;;;;;5062532;28;20450;-44
2021/06/29 06:52:11;;;;;;;4.50;4.10;;;21.80;76.00;;;;;;5059812;28;20493;-44
2021/06/29 06:54:38;;;;;;;3.77;3.47;;;21.80;76.20;;;;;;5057651;28;20469;-44
2021/06/29 06:57:05;;;;;;;6.13;4.30;;;21.80;76.10;;;;;;5060461;28;20958;-44
2021/06/29 06:59:32;;;;;;;4.33;3.93;;;21.90;75.90;;;;;;5062479;28;20450;-44
2021/06/29 07:01:59;;;;;;;4.93;4.53;;;21.90;75.60;;;;;;5061836;28;20850;-44
2021/06/29 07:04:26;;;;;;;5.17;4.13;;;22.00;75.70;;;;;;5059551;28;20457;-44
2021/06/29 07:06:53;;;;;;;5.80;3.90;;;22.00;75.90;;;;;;5057710;28;20480;-44
2021/06/29 07:09:21;;;;;;;4.47;4.07;;;22.10;76.20;;;;;;5065140;28;20514;-44
2021/06/29 07:11:49;;;;;;;5.83;4.07;;;22.10;76.10;;;;;;5056967;28;20978;-44
2021/06/29 07:14:16;;;;;;;7.93;4.73;;;22.20;75.60;;;;;;5056770;28;20954;-44
2021/06/29 07:16:45;;;;;;;5.70;4.43;;;22.20;75.40;;;;;;5088636;28;20980;-44
2021/06/29 07:19:12;;;;;;;7.97;5.97;;;22.20;75.40;;;;;;5065361;28;20484;-44
2021/06/29 07:21:40;;;;;;;4.40;4.07;;;22.30;75.30;;;;;;5058443;28;20457;-44
2021/06/29 07:24:07;;;;;;;4.73;4.13;;;22.40;75.20;;;;;;5056994;28;20461;-44
2021/06/29 07:26:34;;;;;;;5.07;4.57;;;22.50;74.40;;;;;;5057512;28;20502;-44
2021/06/29 07:29:01;;;;;;;5.73;3.70;;;22.60;74.40;;;;;;5059097;28;20438;-44
2021/06/29 07:31:28;;;;;;;4.57;4.17;;;22.70;73.90;;;;;;5057458;28;20486;-44
2021/06/29 07:33:55;;;;;;;4.07;3.77;;;22.80;73.40;;;;;;5059471;28;21005;-44
2021/06/29 07:36:21;;;;;;;5.10;4.70;;;22.80;73.50;;;;;;5060600;28;20791;-44
2021/06/29 07:38:50;;;;;;;4.27;3.97;;;22.90;73.70;;;;;;5057965;28;20465;-44
2021/06/29 07:41:17;;;;;;;3.90;3.60;;;22.90;73.60;;;;;;5059428;28;20458;-44
2021/06/29 07:43:44;;;;;;;4.70;3.70;;;22.90;73.70;;;;;;5054986;28;20549;-44
2021/06/29 07:46:11;;;;;;;4.63;4.17;;;23.00;73.50;;;;;;5057005;28;21128;-44
2021/06/29 07:48:38;;;;;;;4.60;4.20;;;23.00;73.00;;;;;;5056782;28;20449;-44
2021/06/29 07:51:08;;;;;;;4.13;3.73;;;23.10;72.60;;;;;;5054114;28;20458;-44
2021/06/29 07:53:36;;;;;;;5.30;4.10;;;23.10;72.30;;;;;;5057700;28;20490;-44
2021/06/29 07:56:03;;;;;;;4.00;3.70;;;23.10;72.10;;;;;;5058356;28;20454;-44
2021/06/29 07:58:30;;;;;;;4.27;3.83;;;23.20;72.40;;;;;;5060169;28;20454;-44
2021/06/29 08:00:57;;;;;;;4.20;3.90;;;23.30;72.20;;;;;;5061924;28;20934;-44
2021/06/29 08:03:25;;;;;;;4.20;3.90;;;23.30;72.00;;;;;;5060704;28;21109;-44
2021/06/29 08:05:52;;;;;;;4.90;4.37;;;23.40;71.70;;;;;;5055332;28;20556;-44
2021/06/29 08:08:19;;;;;;;4.50;4.20;;;23.60;71.30;;;;;;5055412;28;20461;-44
2021/06/29 08:10:46;;;;;;;4.53;4.20;;;23.80;70.70;;;;;;5061082;28;20467;-44
2021/06/29 08:13:13;;;;;;;5.80;3.90;;;23.90;70.20;;;;;;5057412;28;20484;-44
2021/06/29 08:15:40;;;;;;;5.53;4.03;;;24.10;69.30;;;;;;5086958;28;20446;-44
2021/06/29 08:18:08;;;;;;;4.07;3.77;;;24.30;68.30;;;;;;5055180;28;20507;-44
2021/06/29 08:20:36;;;;;;;4.80;3.60;;;24.40;67.90;;;;;;5056314;28;20914;-44
2021/06/29 08:23:03;;;;;;;3.80;3.00;;;24.40;67.10;;;;;;5060569;28;20464;-44
2021/06/29 08:25:29;;;;;;;3.30;3.07;;;24.40;67.70;;;;;;5051795;28;20464;-44
2021/06/29 08:27:56;;;;;;;3.23;2.70;;;24.40;67.00;;;;;;5053810;28;20453;-44
2021/06/29 08:30:23;;;;;;;4.37;3.00;;;24.40;65.80;;;;;;5052071;28;20466;-45
2021/06/29 08:32:50;;;;;;;3.40;3.10;;;24.30;66.50;;;;;;5053605;28;20909;-44
2021/06/29 08:35:17;;;;;;;3.30;3.00;;;24.30;67.20;;;;;;5052920;28;20461;-44
2021/06/29 08:37:44;;;;;;;2.90;2.70;;;24.40;67.40;;;;;;5053518;28;20987;-44
2021/06/29 08:40:13;;;;;;;4.00;3.60;;;24.40;67.80;;;;;;5052643;28;20457;-44
2021/06/29 08:42:40;;;;;;;4.00;3.70;;;24.30;68.30;;;;;;5057037;28;20457;-44
2021/06/29 08:45:13;;;;;;;4.07;3.77;;;24.30;68.30;;;;;;5055448;28;20880;-44
2021/06/29 08:47:40;;;;;;;5.60;3.47;;;24.30;68.20;;;;;;5060627;28;20468;-44
2021/06/29 08:50:12;;;;;;;3.70;3.30;;;24.30;68.20;;;;;;5055889;28;20450;-44
2021/06/29 08:52:39;;;;;;;4.47;3.77;;;24.30;68.20;;;;;;5054385;28;20481;-44
2021/06/29 08:55:07;;;;;;;6.10;3.50;;;24.40;67.00;;;;;;5057188;28;20964;-44
2021/06/29 08:57:34;;;;;;;4.60;3.37;;;24.30;67.70;;;;;;5084985;28;20446;-44
2021/06/29 09:00:03;;;;;;;3.70;3.40;;;24.30;67.90;;;;;;5057997;28;20503;-44
2021/06/29 09:02:38;;;;;;;4.77;2.80;;;24.20;68.30;;;;;;5061077;28;20499;-44
2021/06/29 09:05:20;;;;;;;3.30;3.10;;;24.20;68.50;;;;;;5092119;28;20995;-44
2021/06/29 09:07:58;;;;;;;3.50;3.03;;;24.20;68.00;;;;;;5062084;28;20803;-44
2021/06/29 09:10:26;;;;;;;3.40;3.10;;;24.30;67.30;;;;;;5064572;28;20954;-44
2021/06/29 09:12:54;;;;;;;3.90;3.60;;;24.60;67.10;;;;;;5091783;28;20830;-44
2021/06/29 09:15:43;;;;;;;2.90;2.70;;;24.80;66.40;;;;;;5061594;28;20442;-44
2021/06/29 09:18:15;;;;;;;3.50;3.17;;;25.10;65.40;;;;;;5063542;28;20552;-45
2021/06/29 09:20:52;;;;;;;2.60;2.13;;;25.30;65.10;;;;;;5059923;28;20833;-45
2021/06/29 09:23:37;;;;;;;3.07;2.40;;;25.60;62.50;;;;;;5061457;28;20461;-45
2021/06/29 09:26:11;;;;;;;2.83;2.63;;;25.90;61.00;;;;;;5085985;28;20458;-45
2021/06/29 09:28:42;;;;;;;3.00;2.80;;;26.10;60.90;;;;;;5064855;28;20461;-45
2021/06/29 09:31:16;;;;;;;2.50;2.30;;;26.20;61.20;;;;;;5058968;28;20446;-45
2021/06/29 09:33:55;;;;;;;2.70;2.50;;;26.50;60.90;;;;;;5058714;28;20480;-45
2021/06/29 09:36:25;;;;;;;2.60;2.40;;;26.70;60.30;;;;;;5057826;28;20449;-45
2021/06/29 09:38:54;;;;;;;2.87;2.53;;;27.00;58.20;;;;;;5060415;28;20531;-45
2021/06/29 09:41:32;;;;;;;2.60;1.90;;;27.40;57.00;;;;;;5058400;28;20458;-45
2021/06/29 09:44:10;;;;;;;2.63;2.43;;;27.70;56.20;;;;;;5058925;28;20468;-45
2021/06/29 09:46:38;;;;;;;2.37;2.13;;;28.10;56.00;;;;;;5061317;28;20769;-45
2021/06/29 09:49:13;;;;;;;2.67;2.47;;;28.30;55.10;;;;;;5067521;28;20476;-46
2021/06/29 09:51:50;;;;;;;3.17;2.10;;;28.60;53.70;;;;;;5059774;28;20300;-45
2021/06/29 09:54:18;;;;;;;2.53;2.33;;;28.90;53.30;;;;;;5058206;28;20465;-47
2021/06/29 09:56:47;;;;;;;2.13;2.03;;;29.00;53.20;;;;;;5055467;28;20283;-47
2021/06/29 09:59:26;;;;;;;2.20;1.93;;;29.10;51.90;;;;;;5057900;28;20211;-47
2021/06/29 10:02:07;;;;;;;1.67;1.57;;;29.10;51.60;;;;;;5058132;28;20206;-47
2021/06/29 10:04:34;;;;;;;1.80;1.70;;;29.10;49.90;;;;;;5057413;28;20644;-47
2021/06/29 10:07:17;;;;;;;4.27;1.80;;;29.10;49.70;;;;;;5059008;28;20221;-47
2021/06/29 10:09:43;;;;;;;1.90;1.70;;;28.80;50.30;;;;;;5059803;28;20298;-47
2021/06/29 10:12:10;;;;;;;2.47;1.67;;;28.80;50.60;;;;;;5090608;28;20587;-47
2021/06/29 10:14:37;;;;;;;2.90;1.80;;;28.70;50.70;;;;;;5057044;28;20710;-47
2021/06/29 10:17:09;;;;;;;2.17;1.50;;;28.60;51.30;;;;;;5057879;28;20203;-47
2021/06/29 10:19:47;;;;;;;4.53;2.07;;;28.40;51.50;;;;;;5057449;28;20219;-47
2021/06/29 10:22:17;;;;;;;1.97;1.80;;;28.20;51.90;;;;;;5055070;28;20290;-47
2021/06/29 10:24:44;;;;;;;2.33;2.10;;;27.80;51.30;;;;;;5058455;28;20672;-47
2021/06/29 10:27:10;;;;;;;2.03;1.70;;;27.50;52.50;;;;;;5057234;28;20459;-47
2021/06/29 10:29:37;;;;;;;2.90;2.00;;;27.20;53.80;;;;;;5059729;28;20453;-47
2021/06/29 10:32:09;;;;;;;2.00;1.90;;;26.90;53.50;;;;;;5059880;28;21082;-47
2021/06/29 10:34:37;;;;;;;1.83;1.73;;;26.80;54.00;;;;;;5061326;28;20999;-47
2021/06/29 10:37:06;;;;;;;4.13;1.93;;;26.70;54.20;;;;;;5055967;28;20492;-47
2021/06/29 10:39:36;;;;;;;2.27;2.07;;;26.70;54.40;;;;;;5056612;28;22847;-47
2021/06/29 10:42:10;;;;;;;2.17;1.70;;;26.70;54.50;;;;;;5065047;28;20536;-47
2021/06/29 10:44:41;;;;;;;1.70;1.60;;;26.70;54.00;;;;;;5060464;28;20532;-47
2021/06/29 10:47:22;;;;;;;2.50;1.63;;;26.60;54.60;;;;;;5057686;28;20857;-47
2021/06/29 10:49:58;;;;;;;1.50;1.40;;;26.50;53.50;;;;;;5058769;28;20453;-47
2021/06/29 10:52:26;;;;;;;1.50;1.40;;;26.50;53.50;;;;;;5058591;28;20480;-47
2021/06/29 10:54:57;;;;;;;1.90;1.80;;;26.30;54.00;;;;;;5058823;28;20456;-47
2021/06/29 10:57:44;;;;;;;2.00;1.70;;;26.20;54.80;;;;;;5056363;28;20496;-47
2021/06/29 11:00:17;;;;;;;1.77;1.67;;;26.20;55.00;;;;;;5056601;28;20457;-47
2021/06/29 11:03:08;;;;;;;2.40;1.97;;;26.30;55.20;;;;;;5059241;28;21150;-47
2021/06/29 11:05:43;;;;;;;2.03;1.93;;;26.30;56.10;;;;;;5057196;28;20469;-47
2021/06/29 11:08:20;;;;;;;1.77;1.67;;;26.40;56.40;;;;;;5060561;28;20464;-48
2021/06/29 11:10:52;;;;;;;2.50;2.07;;;26.40;55.90;;;;;;5055775;28;20465;-47
2021/06/29 11:13:38;;;;;;;2.77;2.10;;;26.40;56.30;;;;;;5056854;28;20999;-47
2021/06/29 11:16:05;;;;;;;2.00;1.90;;;26.40;56.30;;;;;;5063115;28;20504;-47
2021/06/29 11:18:44;;;;;;;2.03;1.87;;;26.40;56.30;;;;;;5060488;28;20937;-47
2021/06/29 11:21:35;;;;;;;2.17;1.97;;;26.40;55.70;;;;;;5056485;28;20448;-47
2021/06/29 11:24:35;;;;;;;3.00;2.10;;;26.50;54.20;;;;;;5054156;28;20466;-47
2021/06/29 11:27:02;;;;;;;2.73;2.23;;;26.50;55.80;;;;;;5055121;28;20470;-47
2021/06/29 11:29:43;;;;;;;3.07;2.53;;;26.50;55.80;;;;;;5057424;28;20465;-47
2021/06/29 11:32:31;;;;;;;2.70;2.50;;;26.50;58.10;;;;;;5056570;28;20846;-47
2021/06/29 11:35:36;;;;;;;3.20;2.27;;;26.50;57.30;;;;;;5058702;28;20486;-47
2021/06/29 11:38:07;;;;;;;2.93;2.00;;;26.50;57.80;;;;;;5057396;28;20450;-47
2021/06/29 11:40:35;;;;;;;2.30;2.10;;;26.50;56.60;;;;;;5056594;28;20445;-47
2021/06/29 11:43:14;;;;;;;2.83;2.63;;;26.50;57.00;;;;;;5055483;28;20480;-47
2021/06/29 11:45:41;;;;;;;3.60;2.70;;;26.60;57.20;;;;;;5061823;28;20471;-47
2021/06/29 11:48:43;;;;;;;2.90;2.70;;;26.70;56.90;;;;;;5053984;28;20457;-47
2021/06/29 11:51:10;;;;;;;2.77;2.57;;;26.80;57.10;;;;;;5055488;28;20695;-47
2021/06/29 11:53:39;;;;;;;2.33;2.13;;;26.70;55.40;;;;;;5057577;28;20472;-47
2021/06/29 11:56:11;;;;;;;1.73;1.63;;;26.60;54.30;;;;;;5057333;28;20462;-47
2021/06/29 11:58:47;;;;;;;2.40;2.00;;;26.70;55.60;;;;;;5055893;28;20457;-47
2021/06/29 12:01:14;;;;;;;2.27;2.07;;;26.70;55.20;;;;;;5059256;28;20500;-47
2021/06/29 12:03:41;;;;;;;3.93;2.00;;;26.80;55.00;;;;;;5084221;28;20458;-47
2021/06/29 12:06:17;;;;;;;2.30;1.97;;;26.80;55.20;;;;;;5057045;28;20808;-47
2021/06/29 12:08:44;;;;;;;4.00;1.87;;;26.90;55.40;;;;;;5059121;28;20480;-47
2021/06/29 12:11:11;;;;;;;2.70;2.27;;;26.90;55.40;;;;;;5063064;28;20450;-47
2021/06/29 12:13:39;;;;;;;2.13;2.00;;;27.00;54.00;;;;;;5056469;28;21021;-47
2021/06/29 12:16:06;;;;;;;1.93;1.83;;;27.00;53.90;;;;;;5055673;28;20464;-47
2021/06/29 12:18:36;;;;;;;2.47;2.27;;;27.10;53.10;;;;;;5059413;28;20501;-47
2021/06/29 12:21:06;;;;;;;2.20;1.93;;;27.10;53.60;;;;;;5045036;28;20587;-47
2021/06/29 12:23:39;;;;;;;2.10;1.90;;;27.10;53.10;;;;;;5054899;28;21143;-47
2021/06/29 12:26:08;;;;;;;2.10;2.00;;;27.10;55.40;;;;;;5057070;28;20464;-47
2021/06/29 12:28:38;;;;;;;3.97;1.90;;;27.20;52.70;;;;;;5060662;28;20464;-47
2021/06/29 12:31:10;;;;;;;2.30;2.20;;;27.30;53.00;;;;;;5058720;28;20466;-47
2021/06/29 12:33:47;;;;;;;2.00;1.90;;;27.30;53.60;;;;;;5056442;28;20473;-47
2021/06/29 12:36:18;;;;;;;2.00;1.90;;;27.30;55.40;;;;;;5057974;28;20444;-47
2021/06/29 12:38:52;;;;;;;2.23;1.80;;;27.30;53.90;;;;;;5057553;28;20452;-47
2021/06/29 12:41:28;;;;;;;2.97;2.10;;;27.30;53.70;;;;;;5056956;28;20454;-47
2021/06/29 12:43:59;;;;;;;2.83;2.17;;;27.20;53.80;;;;;;5057823;28;20465;-47
2021/06/29 12:46:29;;;;;;;2.50;2.30;;;27.10;54.40;;;;;;5059854;28;20528;-47
2021/06/29 12:49:17;;;;;;;4.33;1.60;;;27.10;54.40;;;;;;5055514;28;20537;-47
2021/06/29 12:51:55;;;;;;;1.70;1.57;;;27.00;54.70;;;;;;5055216;28;20946;-47
2021/06/29 12:54:24;;;;;;;1.97;1.70;;;26.90;54.90;;;;;;5056091;28;20567;-47
2021/06/29 12:57:20;;;;;;;4.00;2.40;;;26.80;55.20;;;;;;5052081;28;20460;-47
2021/06/29 12:59:47;;;;;;;2.17;2.07;;;26.70;55.50;;;;;;5050368;28;20534;-47
2021/06/29 13:02:19;;;;;;;1.77;1.67;;;26.60;56.00;;;;;;5056121;28;20458;-47
2021/06/29 13:04:49;;;;;;;3.30;1.93;;;26.50;56.10;;;;;;5057815;28;20993;-47